sensor_id;sensor_type;location;lat;lon;timestamp;pressure;altitude;pressure_sealevel;temperature;humidity
53758;BME280;39674;59.860;30.672;2022-12-10T00:02:09;100837.28;;;-3.30;100.00
53758;BME280;39674;59.860;30.672;2022-12-10T00:04:37;100838.13;;;-3.33;100.00
53758;BME280;39674;59.860;30.672;2022-12-10T00:07:05;100843.28;;;-3.34;100.00
53758;BME280;39674;59.860;30.672;2022-12-10T00:09:34;100850.97;;;-3.38;100.00
53758;BME280;39674;59.860;30.672;2022-12-10T00:12:01;100849.25;;;-3.42;100.00
53758;BME280;39674;59.860;30.672;2022-12-10T00:14:30;100854.31;;;-3.51;100.00
53758;BME280;39674;59.860;30.672;2022-12-10T00:16:59;100861.16;;;-3.59;100.00
53758;BME280;39674;59.860;30.672;2022-12-10T00:19:29;100866.22;;;-3.68;100.00
53758;BME280;39674;59.860;30.672;2022-12-10T00:21:59;100870.47;;;-3.72;100.00
53758;BME280;39674;59.860;30.672;2022-12-10T00:24:27;100873.91;;;-3.72;100.00
53758;BME280;39674;59.860;30.672;2022-12-10T00:26:55;100866.94;;;-3.85;100.00
53758;BME280;39674;59.860;30.672;2022-12-10T00:29:22;100872.94;;;-3.86;100.00
53758;BME280;39674;59.860;30.672;2022-12-10T00:31:52;100885.72;;;-3.95;100.00
53758;BME280;39674;59.860;30.672;2022-12-10T00:34:20;100879.69;;;-3.97;100.00
53758;BME280;39674;59.860;30.672;2022-12-10T00:36:50;100888.28;;;-3.98;100.00
53758;BME280;39674;59.860;30.672;2022-12-10T00:39:18;100893.41;;;-4.01;100.00
53758;BME280;39674;59.860;30.672;2022-12-10T00:41:47;100904.56;;;-4.03;100.00
53758;BME280;39674;59.860;30.672;2022-12-10T00:44:15;100907.13;;;-4.04;100.00
53758;BME280;39674;59.860;30.672;2022-12-10T00:46:45;100902.81;;;-4.08;100.00
53758;BME280;39674;59.860;30.672;2022-12-10T00:49:13;100907.06;;;-4.09;100.00
53758;BME280;39674;59.860;30.672;2022-12-10T00:51:45;100908.75;;;-4.11;100.00
53758;BME280;39674;59.860;30.672;2022-12-10T00:54:17;100917.38;;;-4.12;100.00
53758;BME280;39674;59.860;30.672;2022-12-10T00:56:46;100916.50;;;-4.12;100.00
53758;BME280;39674;59.860;30.672;2022-12-10T00:59:14;100925.06;;;-4.15;100.00
53758;BME280;39674;59.860;30.672;2022-12-10T01:01:42;100923.31;;;-4.19;100.00
53758;BME280;39674;59.860;30.672;2022-12-10T01:04:13;100925.84;;;-4.22;100.00
53758;BME280;39674;59.860;30.672;2022-12-10T01:06:43;100923.25;;;-4.24;100.00
53758;BME280;39674;59.860;30.672;2022-12-10T01:09:13;100923.25;;;-4.22;100.00
53758;BME280;39674;59.860;30.672;2022-12-10T01:11:44;100929.25;;;-4.23;100.00
53758;BME280;39674;59.860;30.672;2022-12-10T01:14:13;100929.22;;;-4.26;100.00
53758;BME280;39674;59.860;30.672;2022-12-10T01:16:43;100928.34;;;-4.27;100.00
53758;BME280;39674;59.860;30.672;2022-12-10T01:19:13;100932.69;;;-4.24;100.00
53758;BME280;39674;59.860;30.672;2022-12-10T01:21:41;100942.22;;;-4.19;100.00
53758;BME280;39674;59.860;30.672;2022-12-10T01:24:09;100941.38;;;-4.19;100.00
53758;BME280;39674;59.860;30.672;2022-12-10T01:26:38;100937.94;;;-4.18;100.00
53758;BME280;39674;59.860;30.672;2022-12-10T01:29:13;100935.31;;;-4.21;100.00
53758;BME280;39674;59.860;30.672;2022-12-10T01:31:42;100936.19;;;-4.19;100.00
53758;BME280;39674;59.860;30.672;2022-12-10T01:34:11;100939.63;;;-4.19;100.00
53758;BME280;39674;59.860;30.672;2022-12-10T01:36:40;100943.09;;;-4.18;100.00
53758;BME280;39674;59.860;30.672;2022-12-10T01:39:11;100944.03;;;-4.11;100.00
53758;BME280;39674;59.860;30.672;2022-12-10T01:41:41;100946.53;;;-4.19;100.00
53758;BME280;39674;59.860;30.672;2022-12-10T01:46:58;100951.75;;;-4.14;100.00
53758;BME280;39674;59.860;30.672;2022-12-10T01:49:31;100958.53;;;-4.21;100.00
53758;BME280;39674;59.860;30.672;2022-12-10T01:52:00;100954.19;;;-4.24;100.00
53758;BME280;39674;59.860;30.672;2022-12-10T01:54:29;100948.19;;;-4.21;100.00
53758;BME280;39674;59.860;30.672;2022-12-10T01:56:59;100950.78;;;-4.21;100.00
53758;BME280;39674;59.860;30.672;2022-12-10T01:59:28;100955.13;;;-4.17;100.00
53758;BME280;39674;59.860;30.672;2022-12-10T02:02:01;100958.59;;;-4.15;100.00
53758;BME280;39674;59.860;30.672;2022-12-10T02:04:31;100952.66;;;-4.09;100.00
53758;BME280;39674;59.860;30.672;2022-12-10T02:07:05;100950.09;;;-4.08;100.00
53758;BME280;39674;59.860;30.672;2022-12-10T02:09:38;100950.16;;;-4.05;100.00
53758;BME280;39674;59.860;30.672;2022-12-10T02:12:11;100950.03;;;-4.11;100.00
53758;BME280;39674;59.860;30.672;2022-12-10T02:14:43;100955.19;;;-4.14;100.00
53758;BME280;39674;59.860;30.672;2022-12-10T02:17:17;100957.78;;;-4.12;100.00
53758;BME280;39674;59.860;30.672;2022-12-10T02:19:52;100953.50;;;-4.12;100.00
53758;BME280;39674;59.860;30.672;2022-12-10T02:22:33;100956.94;;;-4.10;100.00
53758;BME280;39674;59.860;30.672;2022-12-10T02:25:06;100960.41;;;-4.08;100.00
53758;BME280;39674;59.860;30.672;2022-12-10T02:27:39;100958.69;;;-4.07;100.00
53758;BME280;39674;59.860;30.672;2022-12-10T02:30:10;100956.16;;;-4.06;100.00
53758;BME280;39674;59.860;30.672;2022-12-10T02:32:39;100951.00;;;-4.06;100.00
53758;BME280;39674;59.860;30.672;2022-12-10T02:35:10;100951.84;;;-4.07;100.00
53758;BME280;39674;59.860;30.672;2022-12-10T02:37:40;100949.25;;;-4.08;100.00
53758;BME280;39674;59.860;30.672;2022-12-10T02:40:13;100955.19;;;-4.11;100.00
53758;BME280;39674;59.860;30.672;2022-12-10T02:42:47;100959.44;;;-4.16;100.00
53758;BME280;39674;59.860;30.672;2022-12-10T02:45:19;100965.38;;;-4.23;100.00
53758;BME280;39674;59.860;30.672;2022-12-10T02:47:49;100956.69;;;-4.28;100.00
53758;BME280;39674;59.860;30.672;2022-12-10T02:50:20;100961.88;;;-4.28;100.00
53758;BME280;39674;59.860;30.672;2022-12-10T02:52:50;100958.34;;;-4.35;100.00
53758;BME280;39674;59.860;30.672;2022-12-10T02:55:20;100959.09;;;-4.42;100.00
53758;BME280;39674;59.860;30.672;2022-12-10T02:57:59;100968.53;;;-4.43;100.00
53758;BME280;39674;59.860;30.672;2022-12-10T03:00:35;100975.44;;;-4.42;100.00
53758;BME280;39674;59.860;30.672;2022-12-10T03:03:18;100978.00;;;-4.42;100.00
53758;BME280;39674;59.860;30.672;2022-12-10T03:05:52;100983.06;;;-4.48;100.00
53758;BME280;39674;59.860;30.672;2022-12-10T03:08:22;100981.25;;;-4.55;100.00
53758;BME280;39674;59.860;30.672;2022-12-10T03:10:54;100982.09;;;-4.56;100.00
53758;BME280;39674;59.860;30.672;2022-12-10T03:13:27;100987.31;;;-4.53;100.00
53758;BME280;39674;59.860;30.672;2022-12-10T03:15:58;100986.47;;;-4.51;100.00
53758;BME280;39674;59.860;30.672;2022-12-10T03:18:27;100985.63;;;-4.49;100.00
53758;BME280;39674;59.860;30.672;2022-12-10T03:20:58;100987.34;;;-4.50;100.00
53758;BME280;39674;59.860;30.672;2022-12-10T03:23:28;100992.47;;;-4.53;100.00
53758;BME280;39674;59.860;30.672;2022-12-10T03:25:58;100994.19;;;-4.52;100.00
53758;BME280;39674;59.860;30.672;2022-12-10T03:28:29;100987.31;;;-4.53;100.00
53758;BME280;39674;59.860;30.672;2022-12-10T03:31:01;100999.34;;;-4.52;100.00
53758;BME280;39674;59.860;30.672;2022-12-10T03:33:29;100984.75;;;-4.50;100.00
53758;BME280;39674;59.860;30.672;2022-12-10T03:36:00;100986.50;;;-4.49;100.00
53758;BME280;39674;59.860;30.672;2022-12-10T03:38:28;100992.50;;;-4.50;100.00
53758;BME280;39674;59.860;30.672;2022-12-10T03:40:57;100992.47;;;-4.52;100.00
53758;BME280;39674;59.860;30.672;2022-12-10T03:43:30;100999.28;;;-4.55;100.00
53758;BME280;39674;59.860;30.672;2022-12-10T03:45:58;100992.41;;;-4.56;100.00
53758;BME280;39674;59.860;30.672;2022-12-10T03:48:28;100998.44;;;-4.57;100.00
53758;BME280;39674;59.860;30.672;2022-12-10T03:50:56;101005.25;;;-4.59;100.00
53758;BME280;39674;59.860;30.672;2022-12-10T03:53:25;101012.97;;;-4.61;100.00
53758;BME280;39674;59.860;30.672;2022-12-10T03:55:54;101016.38;;;-4.63;100.00
53758;BME280;39674;59.860;30.672;2022-12-10T03:58:22;101013.75;;;-4.67;100.00
53758;BME280;39674;59.860;30.672;2022-12-10T04:00:52;101030.03;;;-4.68;100.00
53758;BME280;39674;59.860;30.672;2022-12-10T04:03:20;101027.47;;;-4.68;100.00
53758;BME280;39674;59.860;30.672;2022-12-10T04:05:52;101034.38;;;-4.65;100.00
53758;BME280;39674;59.860;30.672;2022-12-10T04:08:20;101037.00;;;-4.63;100.00
53758;BME280;39674;59.860;30.672;2022-12-10T04:10:48;101035.28;;;-4.61;100.00
53758;BME280;39674;59.860;30.672;2022-12-10T04:13:17;101032.69;;;-4.63;100.00
53758;BME280;39674;59.860;30.672;2022-12-10T04:16:03;101035.28;;;-4.61;100.00
53758;BME280;39674;59.860;30.672;2022-12-10T04:18:50;101038.78;;;-4.59;100.00
53758;BME280;39674;59.860;30.672;2022-12-10T04:21:22;101040.44;;;-4.61;100.00
53758;BME280;39674;59.860;30.672;2022-12-10T04:24:11;101034.47;;;-4.60;100.00
53758;BME280;39674;59.860;30.672;2022-12-10T04:26:58;101037.03;;;-4.60;100.00
53758;BME280;39674;59.860;30.672;2022-12-10T04:29:29;101042.16;;;-4.63;100.00
53758;BME280;39674;59.860;30.672;2022-12-10T04:32:00;101036.09;;;-4.65;100.00
53758;BME280;39674;59.860;30.672;2022-12-10T04:34:29;101030.97;;;-4.64;100.00
53758;BME280;39674;59.860;30.672;2022-12-10T04:36:58;101035.25;;;-4.64;100.00
53758;BME280;39674;59.860;30.672;2022-12-10T04:39:30;101041.28;;;-4.62;100.00
53758;BME280;39674;59.860;30.672;2022-12-10T04:42:01;101040.44;;;-4.61;100.00
53758;BME280;39674;59.860;30.672;2022-12-10T04:44:29;101043.97;;;-4.56;100.00
53758;BME280;39674;59.860;30.672;2022-12-10T04:47:00;101050.81;;;-4.58;100.00
53758;BME280;39674;59.860;30.672;2022-12-10T04:49:28;101043.97;;;-4.56;100.00
53758;BME280;39674;59.860;30.672;2022-12-10T04:51:58;101061.16;;;-4.55;100.00
53758;BME280;39674;59.860;30.672;2022-12-10T04:54:26;101066.31;;;-4.55;100.00
53758;BME280;39674;59.860;30.672;2022-12-10T04:56:57;101061.06;;;-4.61;100.00
53758;BME280;39674;59.860;30.672;2022-12-10T04:59:28;101060.25;;;-4.59;100.00
53758;BME280;39674;59.860;30.672;2022-12-10T05:01:59;101076.63;;;-4.55;100.00
53758;BME280;39674;59.860;30.672;2022-12-10T05:04:30;101074.97;;;-4.52;100.00
53758;BME280;39674;59.860;30.672;2022-12-10T05:07:08;101074.91;;;-4.56;100.00
53758;BME280;39674;59.860;30.672;2022-12-10T05:09:38;101070.53;;;-4.60;100.00
53758;BME280;39674;59.860;30.672;2022-12-10T05:12:14;101081.75;;;-4.58;100.00
53758;BME280;39674;59.860;30.672;2022-12-10T05:14:49;101078.34;;;-4.57;100.00
53758;BME280;39674;59.860;30.672;2022-12-10T05:17:21;101079.19;;;-4.58;100.00
53758;BME280;39674;59.860;30.672;2022-12-10T05:20:17;101076.63;;;-4.55;100.00
53758;BME280;39674;59.860;30.672;2022-12-10T05:22:51;101083.53;;;-4.54;100.00
53758;BME280;39674;59.860;30.672;2022-12-10T05:25:38;101080.13;;;-4.53;100.00
53758;BME280;39674;59.860;30.672;2022-12-10T05:28:20;101081.75;;;-4.58;100.00
53758;BME280;39674;59.860;30.672;2022-12-10T05:30:51;101080.13;;;-4.53;100.00
53758;BME280;39674;59.860;30.672;2022-12-10T05:33:19;101087.06;;;-4.49;100.00
53758;BME280;39674;59.860;30.672;2022-12-10T05:35:59;101086.19;;;-4.51;100.00
53758;BME280;39674;59.860;30.672;2022-12-10T05:38:32;101091.28;;;-4.53;100.00
53758;BME280;39674;59.860;30.672;2022-12-10T05:41:04;101081.84;;;-4.54;100.00
53758;BME280;39674;59.860;30.672;2022-12-10T05:43:40;101084.44;;;-4.51;100.00
53758;BME280;39674;59.860;30.672;2022-12-10T05:46:09;101098.25;;;-4.48;100.00
53758;BME280;39674;59.860;30.672;2022-12-10T05:48:38;101098.25;;;-4.47;100.00
53758;BME280;39674;59.860;30.672;2022-12-10T05:51:08;101086.22;;;-4.48;100.00
53758;BME280;39674;59.860;30.672;2022-12-10T05:53:40;101091.38;;;-4.46;100.00
53758;BME280;39674;59.860;30.672;2022-12-10T05:56:13;101095.69;;;-4.45;100.00
53758;BME280;39674;59.860;30.672;2022-12-10T05:58:47;101094.03;;;-4.43;100.00
53758;BME280;39674;59.860;30.672;2022-12-10T06:01:16;101090.59;;;-4.44;100.00
53758;BME280;39674;59.860;30.672;2022-12-10T06:03:54;101087.00;;;-4.52;100.00
53758;BME280;39674;59.860;30.672;2022-12-10T06:06:27;101084.41;;;-4.54;100.00
53758;BME280;39674;59.860;30.672;2022-12-10T06:08:57;101074.22;;;-4.46;100.00
53758;BME280;39674;59.860;30.672;2022-12-10T06:11:26;101083.59;;;-4.51;100.00
53758;BME280;39674;59.860;30.672;2022-12-10T06:13:55;101082.72;;;-4.50;100.00
53758;BME280;39674;59.860;30.672;2022-12-10T06:16:24;101078.34;;;-4.57;100.00
53758;BME280;39674;59.860;30.672;2022-12-10T06:18:56;101094.88;;;-4.44;100.00
53758;BME280;39674;59.860;30.672;2022-12-10T06:21:24;101101.84;;;-4.39;100.00
53758;BME280;39674;59.860;30.672;2022-12-10T06:23:52;101101.78;;;-4.42;100.00
53758;BME280;39674;59.860;30.672;2022-12-10T06:26:23;101102.59;;;-4.44;100.00
53758;BME280;39674;59.860;30.672;2022-12-10T06:28:55;101107.66;;;-4.52;100.00
53758;BME280;39674;59.860;30.672;2022-12-10T06:31:24;101116.22;;;-4.53;100.00
53758;BME280;39674;59.860;30.672;2022-12-10T06:33:52;101119.53;;;-4.59;100.00
53758;BME280;39674;59.860;30.672;2022-12-10T06:36:21;101113.44;;;-4.64;100.00
53758;BME280;39674;59.860;30.672;2022-12-10T06:38:49;101119.41;;;-4.67;100.00
53758;BME280;39674;59.860;30.672;2022-12-10T06:41:19;101113.41;;;-4.67;100.00
53758;BME280;39674;59.860;30.672;2022-12-10T06:43:50;101115.91;;;-4.72;100.00
53758;BME280;39674;59.860;30.672;2022-12-10T06:46:19;101118.47;;;-4.72;100.00
53758;BME280;39674;59.860;30.672;2022-12-10T06:48:47;101116.91;;;-4.63;100.00
53758;BME280;39674;59.860;30.672;2022-12-10T06:51:15;101109.84;;;-4.74;100.00
53758;BME280;39674;59.860;30.672;2022-12-10T06:53:45;101119.22;;;-4.77;100.00
53758;BME280;39674;59.860;30.672;2022-12-10T06:56:14;101115.81;;;-4.75;100.00
53758;BME280;39674;59.860;30.672;2022-12-10T06:58:48;101126.88;;;-4.82;100.00
53758;BME280;39674;59.860;30.672;2022-12-10T07:01:19;101126.63;;;-4.94;100.00
53758;BME280;39674;59.860;30.672;2022-12-10T07:04:00;101122.41;;;-4.92;100.00
53758;BME280;39674;59.860;30.672;2022-12-10T07:06:33;101125.91;;;-4.89;100.00
53758;BME280;39674;59.860;30.672;2022-12-10T07:09:02;101123.22;;;-4.95;100.00
53758;BME280;39674;59.860;30.672;2022-12-10T07:11:30;101127.53;;;-4.92;100.00
53758;BME280;39674;59.860;30.672;2022-12-10T07:14:01;101130.84;;;-5.00;100.00
53758;BME280;39674;59.860;30.672;2022-12-10T07:16:55;101124.66;;;-5.08;100.00
53758;BME280;39674;59.860;30.672;2022-12-10T07:19:28;101135.19;;;-4.97;100.00
53758;BME280;39674;59.860;30.672;2022-12-10T07:21:57;101137.84;;;-4.94;100.00
53758;BME280;39674;59.860;30.672;2022-12-10T07:24:25;101135.94;;;-5.03;100.00
53758;BME280;39674;59.860;30.672;2022-12-10T07:26:59;101138.53;;;-5.03;100.00
53758;BME280;39674;59.860;30.672;2022-12-10T07:29:28;101146.19;;;-5.06;100.00
53758;BME280;39674;59.860;30.672;2022-12-10T07:32:01;101149.66;;;-5.04;100.00
53758;BME280;39674;59.860;30.672;2022-12-10T07:34:34;101148.13;;;-4.94;100.00
53758;BME280;39674;59.860;30.672;2022-12-10T07:37:09;101149.94;;;-4.88;100.00
53758;BME280;39674;59.860;30.672;2022-12-10T07:39:38;101151.53;;;-4.96;100.00
53758;BME280;39674;59.860;30.672;2022-12-10T07:42:09;101151.44;;;-5.00;100.00
53758;BME280;39674;59.860;30.672;2022-12-10T07:44:38;101158.31;;;-5.00;100.00
53758;BME280;39674;59.860;30.672;2022-12-10T07:47:09;101155.78;;;-4.98;100.00
53758;BME280;39674;59.860;30.672;2022-12-10T07:49:37;101168.66;;;-4.98;100.00
53758;BME280;39674;59.860;30.672;2022-12-10T07:52:05;101161.84;;;-4.96;100.00
53758;BME280;39674;59.860;30.672;2022-12-10T07:54:35;101168.03;;;-4.87;100.00
53758;BME280;39674;59.860;30.672;2022-12-10T07:57:04;101167.09;;;-4.90;100.00
53758;BME280;39674;59.860;30.672;2022-12-10T07:59:35;101173.81;;;-4.98;100.00
53758;BME280;39674;59.860;30.672;2022-12-10T08:02:05;101178.88;;;-5.02;100.00
53758;BME280;39674;59.860;30.672;2022-12-10T08:04:37;101180.63;;;-5.01;100.00
53758;BME280;39674;59.860;30.672;2022-12-10T08:07:05;101176.28;;;-5.03;100.00
53758;BME280;39674;59.860;30.672;2022-12-10T08:09:36;101180.50;;;-5.07;100.00
53758;BME280;39674;59.860;30.672;2022-12-10T08:12:11;101179.00;;;-4.95;100.00
53758;BME280;39674;59.860;30.672;2022-12-10T08:14:40;101183.19;;;-5.02;100.00
53758;BME280;39674;59.860;30.672;2022-12-10T08:17:08;101180.47;;;-5.10;100.00
53758;BME280;39674;59.860;30.672;2022-12-10T08:19:39;101175.47;;;-5.01;100.00
53758;BME280;39674;59.860;30.672;2022-12-10T08:22:08;101173.59;;;-5.08;100.00
53758;BME280;39674;59.860;30.672;2022-12-10T08:24:36;101178.72;;;-5.11;100.00
53758;BME280;39674;59.860;30.672;2022-12-10T08:27:04;101172.69;;;-5.11;100.00
53758;BME280;39674;59.860;30.672;2022-12-10T08:29:33;101174.50;;;-5.07;100.00
53758;BME280;39674;59.860;30.672;2022-12-10T08:32:01;101172.91;;;-5.01;100.00
53758;BME280;39674;59.860;30.672;2022-12-10T08:34:29;101179.88;;;-4.95;100.00
53758;BME280;39674;59.860;30.672;2022-12-10T08:36:59;101174.72;;;-4.96;100.00
53758;BME280;39674;59.860;30.672;2022-12-10T08:39:28;101167.72;;;-5.02;100.00
53758;BME280;39674;59.860;30.672;2022-12-10T08:42:00;101176.91;;;-5.15;100.00
53758;BME280;39674;59.860;30.672;2022-12-10T08:44:28;101182.13;;;-5.12;100.00
53758;BME280;39674;59.860;30.672;2022-12-10T08:46:56;101181.16;;;-5.17;100.00
53758;BME280;39674;59.860;30.672;2022-12-10T08:49:26;101187.19;;;-5.15;100.00
53758;BME280;39674;59.860;30.672;2022-12-10T08:51:54;101182.13;;;-5.12;100.00
53758;BME280;39674;59.860;30.672;2022-12-10T08:54:24;101185.50;;;-5.14;100.00
53758;BME280;39674;59.860;30.672;2022-12-10T08:56:53;101187.25;;;-5.13;100.00
53758;BME280;39674;59.860;30.672;2022-12-10T08:59:21;101184.63;;;-5.15;100.00
53758;BME280;39674;59.860;30.672;2022-12-10T09:01:50;101185.66;;;-5.07;100.00
53758;BME280;39674;59.860;30.672;2022-12-10T09:04:19;101180.69;;;-4.97;100.00
53758;BME280;39674;59.860;30.672;2022-12-10T09:06:47;101185.72;;;-5.04;100.00
53758;BME280;39674;59.860;30.672;2022-12-10T09:09:16;101192.47;;;-5.09;100.00
53758;BME280;39674;59.860;30.672;2022-12-10T09:11:47;101190.63;;;-5.16;100.00
53758;BME280;39674;59.860;30.672;2022-12-10T09:14:16;101188.91;;;-5.17;100.00
53758;BME280;39674;59.860;30.672;2022-12-10T09:16:45;101190.63;;;-5.16;100.00
53758;BME280;39674;59.860;30.672;2022-12-10T09:19:14;101196.84;;;-5.06;100.00
53758;BME280;39674;59.860;30.672;2022-12-10T09:21:42;101190.06;;;-5.03;100.00
53758;BME280;39674;59.860;30.672;2022-12-10T09:24:10;101188.22;;;-5.07;100.00
53758;BME280;39674;59.860;30.672;2022-12-10T09:26:38;101187.28;;;-5.12;100.00
53758;BME280;39674;59.860;30.672;2022-12-10T09:29:08;101192.44;;;-5.12;100.00
53758;BME280;39674;59.860;30.672;2022-12-10T09:31:38;101190.63;;;-5.16;100.00
53758;BME280;39674;59.860;30.672;2022-12-10T09:34:09;101194.91;;;-5.17;100.00
53758;BME280;39674;59.860;30.672;2022-12-10T09:36:37;101198.41;;;-5.13;100.00
53758;BME280;39674;59.860;30.672;2022-12-10T09:39:05;101196.78;;;-5.09;100.00
53758;BME280;39674;59.860;30.672;2022-12-10T09:41:36;101206.38;;;-5.01;100.00
53758;BME280;39674;59.860;30.672;2022-12-10T09:44:11;101203.06;;;-4.96;100.00
53758;BME280;39674;59.860;30.672;2022-12-10T09:46:44;101195.31;;;-4.96;100.00
53758;BME280;39674;59.860;30.672;2022-12-10T09:49:17;101189.38;;;-4.92;100.00
53758;BME280;39674;59.860;30.672;2022-12-10T09:51:49;101194.72;;;-4.83;100.00
53758;BME280;39674;59.860;30.672;2022-12-10T09:54:22;101198.88;;;-4.90;100.00
53758;BME280;39674;59.860;30.672;2022-12-10T09:56:57;101197.94;;;-4.93;100.00
53758;BME280;39674;59.860;30.672;2022-12-10T09:59:29;101192.88;;;-4.90;100.00
53758;BME280;39674;59.860;30.672;2022-12-10T10:02:00;101199.81;;;-4.86;100.00
53758;BME280;39674;59.860;30.672;2022-12-10T10:04:32;101202.38;;;-4.86;100.00
53758;BME280;39674;59.860;30.672;2022-12-10T10:06:59;101199.81;;;-4.86;100.00
53758;BME280;39674;59.860;30.672;2022-12-10T10:09:32;101203.28;;;-4.84;100.00
53758;BME280;39674;59.860;30.672;2022-12-10T10:12:11;101206.63;;;-4.88;100.00
53758;BME280;39674;59.860;30.672;2022-12-10T10:14:44;101206.75;;;-4.82;100.00
53758;BME280;39674;59.860;30.672;2022-12-10T10:17:14;101215.38;;;-4.80;100.00
53758;BME280;39674;59.860;30.672;2022-12-10T10:19:44;101208.44;;;-4.84;100.00
53758;BME280;39674;59.860;30.672;2022-12-10T10:22:12;101210.91;;;-4.90;100.00
53758;BME280;39674;59.860;30.672;2022-12-10T10:24:43;101211.63;;;-4.97;100.00
53758;BME280;39674;59.860;30.672;2022-12-10T10:27:14;101214.13;;;-4.99;100.00
53758;BME280;39674;59.860;30.672;2022-12-10T10:29:44;101212.50;;;-4.95;100.00
53758;BME280;39674;59.860;30.672;2022-12-10T10:32:15;101211.78;;;-4.88;100.00
53758;BME280;39674;59.860;30.672;2022-12-10T10:34:51;101217.69;;;-4.94;100.00
53758;BME280;39674;59.860;30.672;2022-12-10T10:37:21;101217.69;;;-4.94;100.00
53758;BME280;39674;59.860;30.672;2022-12-10T10:39:50;101219.38;;;-4.96;100.00
53758;BME280;39674;59.860;30.672;2022-12-10T10:42:25;101221.13;;;-4.93;100.00
53758;BME280;39674;59.860;30.672;2022-12-10T10:44:57;101221.16;;;-4.92;100.00
53758;BME280;39674;59.860;30.672;2022-12-10T10:47:27;101224.53;;;-4.96;100.00
53758;BME280;39674;59.860;30.672;2022-12-10T10:49:56;101227.06;;;-4.97;100.00
53758;BME280;39674;59.860;30.672;2022-12-10T10:52:27;101232.34;;;-4.91;100.00
53758;BME280;39674;59.860;30.672;2022-12-10T10:54:56;101222.03;;;-4.93;100.00
53758;BME280;39674;59.860;30.672;2022-12-10T10:57:27;101223.66;;;-4.96;100.00
53758;BME280;39674;59.860;30.672;2022-12-10T11:00:05;101219.44;;;-4.93;100.00
53758;BME280;39674;59.860;30.672;2022-12-10T11:02:38;101219.41;;;-4.94;100.00
53758;BME280;39674;59.860;30.672;2022-12-10T11:05:15;101218.63;;;-4.90;100.00
53758;BME280;39674;59.860;30.672;2022-12-10T11:07:47;101216.91;;;-4.91;100.00
53758;BME280;39674;59.860;30.672;2022-12-10T11:10:17;101214.41;;;-4.87;100.00
53758;BME280;39674;59.860;30.672;2022-12-10T11:12:46;101217.06;;;-4.82;100.00
53758;BME280;39674;59.860;30.672;2022-12-10T11:18:22;101221.94;;;-4.96;100.00
53758;BME280;39674;59.860;30.672;2022-12-10T11:21:00;101223.72;;;-4.93;100.00
53758;BME280;39674;59.860;30.672;2022-12-10T11:23:29;101224.72;;;-4.87;100.00
53758;BME280;39674;59.860;30.672;2022-12-10T11:26:02;101215.34;;;-4.83;100.00
53758;BME280;39674;59.860;30.672;2022-12-10T11:28:36;101223.09;;;-4.81;100.00
53758;BME280;39674;59.860;30.672;2022-12-10T11:31:13;101220.53;;;-4.80;100.00
53758;BME280;39674;59.860;30.672;2022-12-10T11:33:49;101220.75;;;-4.71;100.00
53758;BME280;39674;59.860;30.672;2022-12-10T11:36:23;101215.59;;;-4.69;100.00
53758;BME280;39674;59.860;30.672;2022-12-10T11:39:00;101216.44;;;-4.70;100.00
53758;BME280;39674;59.860;30.672;2022-12-10T11:41:31;101220.66;;;-4.74;100.00
53758;BME280;39674;59.860;30.672;2022-12-10T11:44:14;101215.34;;;-4.83;100.00
53758;BME280;39674;59.860;30.672;2022-12-10T11:46:51;101214.44;;;-4.85;100.00
53758;BME280;39674;59.860;30.672;2022-12-10T11:49:35;101220.44;;;-4.86;100.00
53758;BME280;39674;59.860;30.672;2022-12-10T11:52:08;101219.59;;;-4.85;100.00
53758;BME280;39674;59.860;30.672;2022-12-10T11:54:52;101226.41;;;-4.87;100.00
53758;BME280;39674;59.860;30.672;2022-12-10T11:57:28;101225.47;;;-4.92;100.00
53758;BME280;39674;59.860;30.672;2022-12-10T11:59:59;101222.91;;;-4.91;100.00
53758;BME280;39674;59.860;30.672;2022-12-10T12:02:44;101224.63;;;-4.91;100.00
53758;BME280;39674;59.860;30.672;2022-12-10T12:05:22;101216.91;;;-4.91;100.00
53758;BME280;39674;59.860;30.672;2022-12-10T12:07:53;101230.66;;;-4.89;100.00
53758;BME280;39674;59.860;30.672;2022-12-10T12:10:30;101233.22;;;-4.91;100.00
53758;BME280;39674;59.860;30.672;2022-12-10T12:13:04;101231.47;;;-4.92;100.00
53758;BME280;39674;59.860;30.672;2022-12-10T12:15:36;101234.03;;;-4.93;100.00
53758;BME280;39674;59.860;30.672;2022-12-10T12:18:10;101234.84;;;-4.94;100.00
53758;BME280;39674;59.860;30.672;2022-12-10T12:20:48;101246.00;;;-4.95;100.00
53758;BME280;39674;59.860;30.672;2022-12-10T12:23:22;101242.41;;;-5.04;100.00
53758;BME280;39674;59.860;30.672;2022-12-10T12:25:55;101251.81;;;-5.06;100.00
53758;BME280;39674;59.860;30.672;2022-12-10T12:28:25;101249.13;;;-5.09;100.00
53758;BME280;39674;59.860;30.672;2022-12-10T12:30:58;101260.44;;;-5.04;100.00
53758;BME280;39674;59.860;30.672;2022-12-10T12:33:28;101262.22;;;-5.00;100.00
53758;BME280;39674;59.860;30.672;2022-12-10T12:35:59;101260.44;;;-5.04;100.00
53758;BME280;39674;59.860;30.672;2022-12-10T12:38:36;101254.38;;;-5.06;100.00
53758;BME280;39674;59.860;30.672;2022-12-10T12:41:13;101258.75;;;-5.02;100.00
53758;BME280;39674;59.860;30.672;2022-12-10T12:43:46;101261.31;;;-5.02;100.00
53758;BME280;39674;59.860;30.672;2022-12-10T12:46:19;101275.06;;;-5.03;100.00
53758;BME280;39674;59.860;30.672;2022-12-10T12:48:51;101267.38;;;-5.01;100.00
53758;BME280;39674;59.860;30.672;2022-12-10T12:51:29;101270.75;;;-5.04;100.00
53758;BME280;39674;59.860;30.672;2022-12-10T12:53:59;101268.09;;;-5.07;100.00
53758;BME280;39674;59.860;30.672;2022-12-10T12:56:45;101268.31;;;-4.97;100.00
53758;BME280;39674;59.860;30.672;2022-12-10T12:59:19;101266.56;;;-4.98;100.00